Аэропорт: Элиста. Элиста

ICAO: URWI

METAR:
2019/05/25 20:00
URWI 252000Z AUTO 28004MPS 9999 // ///120/// 18/12 Q1010
METAR:
2019/05/19 12:12
TAF TAF URWI 191100Z 1912/1924 04003G08MPS 9999 SCT020CB 
      TEMPO 1912/1918 08005G11MPS PROB40 
      TEMPO 1912/1918 -TSRA